Weather at Aransas County Airport

Public forecast

Using degrees Fahrenheit for public forecast. Weather courtesy of forecast.io.

Current aviation weather report (METAR) for Aransas County Airport

2024/06/17 03:53 (retrieved 40 minutes ago)

KRKP 170353Z AUTO 14016G25KT 9SM SCT024 30/25 A2981 RMK AO2 PK WND 12026/0330 SLP096 T03000250

Closest aviation forecast (TAF) to Aransas County Airport

Forecast is more than 6 hours old.

Closest forecast is Quetzalc√≥atl International Airport, 139.6 nm (258.6 km) WSW.

2024/06/16 18:31 (retrieved 10 hours ago)

TAF MMNL 161727Z 1618/1718 13010KT P6SM SKC BECMG 1620/1621 13015G25KT FM170300 13012KT P6SM SKC BECMG 1717/1718 13012KT SCT020